Time;durP1;ratioP1;P1;durP2;ratioP2;P2;SDS_P1;SDS_P2;PMS_P1;PMS_P2;Temp;Humidity;BMP_temperature;BMP_pressure;BME280_temperature;BME280_humidity;BME280_pressure;Samples;Min_cycle;Max_cycle;Signal;HPM_P1;HPM_P2
2023/05/18 00:01:48;;;;;;;4.38;3.65;;;7.70;99.90;;;;;;5077507;28;20375;-83
2023/05/18 00:04:15;;;;;;;6.25;3.67;;;7.60;99.90;;;;;;5053760;28;20412;-83
2023/05/18 00:06:41;;;;;;;4.40;3.65;;;7.80;99.90;;;;;;5035886;28;20500;-83
2023/05/18 00:09:07;;;;;;;5.70;3.30;;;7.80;99.90;;;;;;5037160;28;20432;-83
2023/05/18 00:11:33;;;;;;;5.07;3.50;;;7.70;99.90;;;;;;5035964;28;20382;-83
2023/05/18 00:13:59;;;;;;;4.93;3.90;;;7.70;99.90;;;;;;5036180;28;20412;-84
2023/05/18 00:16:24;;;;;;;6.38;3.80;;;7.50;99.90;;;;;;5053185;28;20938;-83
2023/05/18 00:18:53;;;;;;;5.72;3.80;;;7.60;99.90;;;;;;5052195;28;20389;-84
2023/05/18 00:21:19;;;;;;;5.18;3.75;;;7.50;99.90;;;;;;5035519;28;20392;-84
2023/05/18 00:23:48;;;;;;;4.88;3.60;;;7.60;99.90;;;;;;5035595;28;21061;-85
2023/05/18 00:26:14;;;;;;;4.32;3.60;;;7.60;99.90;;;;;;5052111;28;20381;-84
2023/05/18 00:28:40;;;;;;;6.10;3.90;;;7.60;99.90;;;;;;5035731;28;20440;-83
2023/05/18 00:31:06;;;;;;;4.18;3.78;;;7.50;99.90;;;;;;5035984;28;20389;-83
2023/05/18 00:33:31;;;;;;;4.15;3.45;;;7.40;99.90;;;;;;5052702;28;20879;-83
2023/05/18 00:35:58;;;;;;;5.70;4.05;;;7.60;99.90;;;;;;5051370;28;20393;-84
2023/05/18 00:38:23;;;;;;;6.50;4.23;;;7.50;99.90;;;;;;5053760;28;20385;-83
2023/05/18 00:40:49;;;;;;;4.68;3.58;;;7.30;99.90;;;;;;5035801;28;20381;-85
2023/05/18 00:43:15;;;;;;;5.20;3.60;;;7.30;99.90;;;;;;5039298;28;20388;-83
2023/05/18 00:45:40;;;;;;;4.13;3.70;;;7.20;99.90;;;;;;5039967;28;20855;-84
2023/05/18 00:48:06;;;;;;;7.00;4.50;;;7.20;99.90;;;;;;5058622;28;20442;-84
2023/05/18 00:50:31;;;;;;;5.67;4.03;;;7.20;99.90;;;;;;5058066;28;20460;-83
2023/05/18 00:52:57;;;;;;;4.20;3.67;;;7.20;99.90;;;;;;5041693;28;20381;-84
2023/05/18 00:55:23;;;;;;;4.90;4.00;;;7.20;99.90;;;;;;5040674;28;20490;-83
2023/05/18 00:57:49;;;;;;;7.70;5.93;;;7.30;99.90;;;;;;5059082;28;20381;-83
2023/05/18 01:00:14;;;;;;;5.80;4.15;;;7.30;99.90;;;;;;5039035;28;20921;-84
2023/05/18 01:02:44;;;;;;;6.85;4.10;;;7.20;99.90;;;;;;5039391;28;20733;-83
2023/05/18 01:05:10;;;;;;;6.07;3.70;;;7.20;99.90;;;;;;5068444;28;20386;-84
2023/05/18 01:07:38;;;;;;;4.93;3.85;;;7.30;99.90;;;;;;5077222;28;20403;-84
2023/05/18 01:10:04;;;;;;;5.35;4.35;;;7.40;99.90;;;;;;5058556;28;20897;-84
2023/05/18 01:13:05;;;;;;;5.47;3.63;;;7.20;99.90;;;;;;5058435;28;20384;-84
2023/05/18 01:15:35;;;;;;;5.28;4.20;;;7.20;99.90;;;;;;5005485;28;20451;-83
2023/05/18 01:18:29;;;;;;;6.00;4.05;;;7.20;99.90;;;;;;5059071;28;20441;-84
2023/05/18 01:20:58;;;;;;;4.90;4.30;;;7.10;99.90;;;;;;5059104;28;20894;-83
2023/05/18 01:23:51;;;;;;;5.43;4.05;;;6.90;99.90;;;;;;5058292;28;20392;-84
2023/05/18 01:26:30;;;;;;;5.68;4.20;;;6.90;99.90;;;;;;5045313;28;20387;-84
2023/05/18 01:29:00;;;;;;;4.57;3.78;;;6.80;99.90;;;;;;5060223;28;20403;-84
2023/05/18 01:31:26;;;;;;;5.88;4.70;;;6.70;99.90;;;;;;5078087;28;20383;-84
2023/05/18 01:33:52;;;;;;;4.60;4.20;;;6.70;99.90;;;;;;5060591;28;20435;-83
2023/05/18 01:36:17;;;;;;;6.70;4.10;;;6.70;99.90;;;;;;5058698;28;20438;-84
2023/05/18 01:38:44;;;;;;;5.27;4.07;;;6.60;99.90;;;;;;5060484;28;20388;-83
2023/05/18 01:41:30;;;;;;;5.03;4.07;;;6.80;99.90;;;;;;5060361;28;20470;-84
2023/05/18 01:44:47;;;;;;;5.30;3.90;;;6.70;99.90;;;;;;5059925;28;20388;-84
2023/05/18 01:47:14;;;;;;;5.13;4.38;;;6.60;99.90;;;;;;5017683;28;20413;-83
2023/05/18 01:50:03;;;;;;;4.25;3.60;;;6.40;99.90;;;;;;5078510;28;20399;-84
2023/05/18 01:52:36;;;;;;;5.17;4.40;;;6.40;99.90;;;;;;5077726;28;20469;-83
2023/05/18 01:55:03;;;;;;;7.78;4.90;;;6.50;99.90;;;;;;5078035;28;20388;-84
2023/05/18 01:57:31;;;;;;;4.45;3.90;;;6.50;99.90;;;;;;5060070;28;20433;-85
2023/05/18 02:00:00;;;;;;;6.22;4.50;;;6.40;99.90;;;;;;5063288;28;20398;-84
2023/05/18 02:02:27;;;;;;;6.00;4.30;;;6.40;99.90;;;;;;5067012;28;20616;-84
2023/05/18 02:04:53;;;;;;;4.78;4.00;;;6.40;99.90;;;;;;5051011;28;20389;-84
2023/05/18 02:07:18;;;;;;;6.22;4.10;;;6.40;99.90;;;;;;5056767;28;20488;-83
2023/05/18 02:09:44;;;;;;;6.82;4.60;;;6.40;99.90;;;;;;5039798;28;20401;-83
2023/05/18 02:12:10;;;;;;;7.65;4.93;;;6.30;99.90;;;;;;5057729;28;20405;-84
2023/05/18 02:14:36;;;;;;;5.85;4.57;;;6.30;99.90;;;;;;5039287;28;20385;-84
2023/05/18 02:17:02;;;;;;;7.13;4.73;;;6.30;99.90;;;;;;5038731;28;21152;-84
2023/05/18 02:19:29;;;;;;;7.30;4.47;;;6.30;99.90;;;;;;5057078;28;20480;-83
2023/05/18 02:21:55;;;;;;;5.40;4.20;;;6.20;99.90;;;;;;5058587;28;20400;-84
2023/05/18 02:24:21;;;;;;;6.68;3.90;;;6.20;99.90;;;;;;5040446;28;20755;-84
2023/05/18 02:26:47;;;;;;;6.27;3.80;;;6.20;99.90;;;;;;5056557;28;20860;-83
2023/05/18 02:29:13;;;;;;;6.03;4.10;;;6.20;99.90;;;;;;5039875;28;20446;-84
2023/05/18 02:31:39;;;;;;;6.32;4.53;;;6.10;99.90;;;;;;5057992;28;20413;-83
2023/05/18 02:34:05;;;;;;;4.78;4.30;;;6.20;99.90;;;;;;5040359;28;20413;-84
2023/05/18 02:36:35;;;;;;;7.87;4.60;;;6.10;99.90;;;;;;5039100;28;20921;-83
2023/05/18 02:39:03;;;;;;;7.25;5.20;;;6.00;99.90;;;;;;5057229;28;20389;-83
2023/05/18 02:41:29;;;;;;;5.68;4.80;;;5.90;99.90;;;;;;5038158;28;20381;-83
2023/05/18 02:43:54;;;;;;;7.20;4.63;;;5.90;99.90;;;;;;5055457;28;20794;-84
2023/05/18 02:46:20;;;;;;;7.40;4.97;;;5.90;99.90;;;;;;5054526;28;20393;-84
2023/05/18 02:48:46;;;;;;;6.20;4.30;;;5.90;99.90;;;;;;5038701;28;20425;-84
2023/05/18 02:51:12;;;;;;;7.10;5.20;;;5.80;99.90;;;;;;5037403;28;20378;-84
2023/05/18 02:53:38;;;;;;;6.28;4.75;;;6.00;99.90;;;;;;5037773;28;20404;-83
2023/05/18 02:56:04;;;;;;;5.63;5.10;;;5.90;99.90;;;;;;5052738;28;20764;-84
2023/05/18 02:58:29;;;;;;;7.17;4.50;;;5.90;99.90;;;;;;5056172;28;20392;-83
2023/05/18 03:00:55;;;;;;;6.60;4.80;;;5.80;99.90;;;;;;5038612;28;20400;-84
2023/05/18 03:03:22;;;;;;;5.97;4.60;;;5.80;99.90;;;;;;5035854;28;20388;-83
2023/05/18 03:05:51;;;;;;;6.65;4.13;;;5.80;99.90;;;;;;5070037;28;20395;-84
2023/05/18 03:08:18;;;;;;;6.43;4.63;;;5.80;99.90;;;;;;5075873;28;20567;-84
2023/05/18 03:10:44;;;;;;;5.05;4.55;;;5.80;99.90;;;;;;5057148;28;20400;-83
2023/05/18 03:13:09;;;;;;;5.28;4.60;;;5.80;99.90;;;;;;5056083;28;20411;-84
2023/05/18 03:15:36;;;;;;;5.00;4.50;;;5.70;99.90;;;;;;5073358;28;20384;-83
2023/05/18 03:18:02;;;;;;;7.73;4.60;;;5.80;99.90;;;;;;5061414;28;20421;-83
2023/05/18 03:20:30;;;;;;;5.13;4.47;;;5.80;99.90;;;;;;5081669;28;20391;-83
2023/05/18 03:22:56;;;;;;;6.90;4.50;;;5.60;99.90;;;;;;5076423;28;20386;-83
2023/05/18 03:25:24;;;;;;;5.43;4.10;;;5.70;99.90;;;;;;5056558;28;20393;-84
2023/05/18 03:27:51;;;;;;;4.93;4.20;;;5.60;99.90;;;;;;5070455;28;20426;-83
2023/05/18 03:30:18;;;;;;;4.70;4.22;;;5.60;99.90;;;;;;5095068;28;20391;-83
2023/05/18 03:32:44;;;;;;;6.75;4.50;;;5.80;99.90;;;;;;5078198;28;20452;-82
2023/05/18 03:35:09;;;;;;;7.55;4.80;;;5.50;99.90;;;;;;5078407;28;20371;-83
2023/05/18 03:37:35;;;;;;;6.50;4.30;;;5.50;99.90;;;;;;5087936;28;20383;-84
2023/05/18 03:40:09;;;;;;;5.97;4.40;;;5.60;99.90;;;;;;5058615;28;20408;-85
2023/05/18 03:42:35;;;;;;;5.03;4.27;;;5.40;99.90;;;;;;5077509;28;20472;-84
2023/05/18 03:45:01;;;;;;;5.80;4.30;;;5.50;99.90;;;;;;5058398;28;20416;-84
2023/05/18 03:47:26;;;;;;;4.47;4.07;;;5.50;99.90;;;;;;5075433;28;20376;-82
2023/05/18 03:49:52;;;;;;;8.00;4.30;;;5.40;99.90;;;;;;5056959;28;20512;-82
2023/05/18 03:52:21;;;;;;;7.60;4.63;;;5.50;99.90;;;;;;5059457;28;21028;-85
2023/05/18 03:54:49;;;;;;;5.27;4.27;;;5.40;99.90;;;;;;5062326;28;20450;-82
2023/05/18 03:57:16;;;;;;;5.50;4.30;;;5.50;99.90;;;;;;5067255;28;20376;-82
2023/05/18 03:59:43;;;;;;;5.13;4.43;;;5.50;99.90;;;;;;5093221;28;20379;-82
2023/05/18 04:02:10;;;;;;;5.78;4.30;;;5.50;99.90;;;;;;5087305;28;20434;-82
2023/05/18 04:04:35;;;;;;;5.03;4.20;;;5.50;99.90;;;;;;5056249;28;20405;-82
2023/05/18 04:07:04;;;;;;;6.90;4.90;;;5.60;99.90;;;;;;5070012;23;20424;-78
2023/05/18 04:09:30;;;;;;;6.33;4.40;;;5.60;99.90;;;;;;5071804;28;20522;-78
2023/05/18 04:11:56;;;;;;;6.20;4.10;;;5.50;99.90;;;;;;5071771;28;20388;-78
2023/05/18 04:14:23;;;;;;;4.75;4.35;;;5.60;99.90;;;;;;5053987;28;20395;-78
2023/05/18 04:16:50;;;;;;;5.03;4.20;;;5.60;99.90;;;;;;5052921;28;20384;-78
2023/05/18 04:19:17;;;;;;;7.05;5.20;;;5.70;99.90;;;;;;5072942;28;20384;-78
2023/05/18 04:21:46;;;;;;;5.35;4.65;;;5.50;99.90;;;;;;5075042;28;20758;-78
2023/05/18 04:24:13;;;;;;;6.10;4.30;;;5.50;99.90;;;;;;5056039;28;20391;-79
2023/05/18 04:26:39;;;;;;;5.30;4.80;;;5.50;99.90;;;;;;5053921;28;20392;-78
2023/05/18 04:29:06;;;;;;;5.78;4.65;;;5.40;99.90;;;;;;5072906;28;20431;-78
2023/05/18 04:31:33;;;;;;;6.50;4.67;;;5.40;99.90;;;;;;5054763;28;20417;-78
2023/05/18 04:33:59;;;;;;;6.13;4.70;;;5.50;99.90;;;;;;5073234;28;20732;-78
2023/05/18 04:36:29;;;;;;;5.57;4.70;;;5.50;99.90;;;;;;5072247;28;20437;-78
2023/05/18 04:38:57;;;;;;;6.55;4.57;;;5.50;99.90;;;;;;5072030;28;20394;-78
2023/05/18 04:41:23;;;;;;;6.60;4.80;;;5.70;99.90;;;;;;5072943;28;20441;-79
2023/05/18 04:43:49;;;;;;;5.70;4.90;;;5.60;99.90;;;;;;5054689;28;20402;-78
2023/05/18 04:46:15;;;;;;;5.50;4.90;;;5.70;99.90;;;;;;5071671;28;20455;-80
2023/05/18 04:48:41;;;;;;;6.32;4.85;;;5.60;99.90;;;;;;5053834;28;20510;-78
2023/05/18 04:51:07;;;;;;;6.67;5.13;;;5.60;99.90;;;;;;5070136;28;20468;-78
2023/05/18 04:53:33;;;;;;;5.82;4.47;;;5.60;99.90;;;;;;5053681;28;20387;-78
2023/05/18 04:55:59;;;;;;;5.57;4.20;;;5.60;99.90;;;;;;5052557;28;20418;-78
2023/05/18 04:58:26;;;;;;;4.90;4.40;;;5.70;99.90;;;;;;5070583;28;20383;-78
2023/05/18 05:00:52;;;;;;;5.30;4.80;;;5.80;99.90;;;;;;5070904;28;20375;-78
2023/05/18 05:03:17;;;;;;;5.82;4.60;;;5.90;99.90;;;;;;5070971;28;20995;-78
2023/05/18 05:05:43;;;;;;;5.50;4.10;;;5.90;99.90;;;;;;5070569;28;20411;-78
2023/05/18 05:08:08;;;;;;;4.78;4.25;;;6.00;99.90;;;;;;5053415;28;20893;-79
2023/05/18 05:10:34;;;;;;;7.40;4.60;;;6.10;99.90;;;;;;5071325;28;20399;-78
2023/05/18 05:13:00;;;;;;;8.10;4.50;;;6.00;99.90;;;;;;5071207;28;20384;-78
2023/05/18 05:15:25;;;;;;;7.53;4.33;;;6.20;99.90;;;;;;5071105;28;20386;-78
2023/05/18 05:17:51;;;;;;;4.65;4.22;;;5.10;99.90;;;;;;5070699;28;20388;-78
2023/05/18 05:20:17;;;;;;;4.88;4.40;;;6.20;99.90;;;;;;5071290;28;20904;-78
2023/05/18 05:22:42;;;;;;;6.22;4.40;;;6.20;99.90;;;;;;5070976;28;20383;-78
2023/05/18 05:25:08;;;;;;;4.22;3.70;;;6.30;99.90;;;;;;5053215;28;20383;-78
2023/05/18 05:27:34;;;;;;;6.20;3.80;;;6.40;99.90;;;;;;5071784;28;20398;-78
2023/05/18 05:29:59;;;;;;;4.28;3.60;;;6.40;99.90;;;;;;5077054;28;20406;-81
2023/05/18 05:32:25;;;;;;;4.87;4.37;;;6.50;99.90;;;;;;5075272;28;20442;-79
2023/05/18 05:34:50;;;;;;;7.90;4.00;;;6.50;99.90;;;;;;5074551;28;20409;-79
2023/05/18 05:37:17;;;;;;;5.97;4.10;;;6.60;99.90;;;;;;5055433;28;20395;-79
2023/05/18 05:39:43;;;;;;;5.47;4.22;;;6.80;99.90;;;;;;5074997;28;20470;-80
2023/05/18 05:42:09;;;;;;;5.40;4.07;;;6.80;99.90;;;;;;5074325;28;20766;-80
2023/05/18 05:44:34;;;;;;;8.32;4.30;;;6.90;99.90;;;;;;5075382;28;20395;-79
2023/05/18 05:47:00;;;;;;;6.63;4.45;;;7.00;99.90;;;;;;5073384;28;20466;-79
2023/05/18 05:49:25;;;;;;;5.97;4.13;;;7.10;99.90;;;;;;5073887;28;20435;-79
2023/05/18 05:51:52;;;;;;;6.13;4.03;;;7.20;99.90;;;;;;5073688;28;20380;-79
2023/05/18 05:54:17;;;;;;;5.30;3.50;;;7.40;99.90;;;;;;5074168;28;20421;-79
2023/05/18 05:56:43;;;;;;;5.57;4.30;;;7.50;99.90;;;;;;5072725;28;20388;-79
2023/05/18 05:59:08;;;;;;;5.00;3.95;;;7.60;99.90;;;;;;5055878;28;20418;-79
2023/05/18 06:01:35;;;;;;;4.68;3.67;;;7.70;99.90;;;;;;5055750;28;20391;-79
2023/05/18 06:04:02;;;;;;;5.13;3.60;;;8.00;99.90;;;;;;5072505;28;20433;-79
2023/05/18 06:06:31;;;;;;;5.43;3.90;;;8.20;99.90;;;;;;5035516;28;20478;-79
2023/05/18 06:08:57;;;;;;;4.03;3.53;;;8.30;99.90;;;;;;5056163;28;20409;-79
2023/05/18 06:11:22;;;;;;;5.57;3.93;;;8.40;99.90;;;;;;5054622;28;20381;-79
2023/05/18 06:13:48;;;;;;;5.80;3.50;;;8.40;99.90;;;;;;5054511;28;20791;-79
2023/05/18 06:16:14;;;;;;;4.70;3.73;;;8.60;99.90;;;;;;5053101;28;20559;-79
2023/05/18 06:18:39;;;;;;;4.72;3.90;;;8.70;99.90;;;;;;5053605;28;20421;-79
2023/05/18 06:21:05;;;;;;;7.18;3.90;;;8.80;99.90;;;;;;5053252;28;20384;-79
2023/05/18 06:23:30;;;;;;;4.95;3.83;;;8.90;99.90;;;;;;5052897;28;20386;-79
2023/05/18 06:25:56;;;;;;;5.40;3.45;;;8.90;99.90;;;;;;5033953;28;20417;-79
2023/05/18 06:28:21;;;;;;;6.53;3.50;;;9.20;99.90;;;;;;5052982;28;20898;-79
2023/05/18 06:30:47;;;;;;;4.30;3.80;;;9.30;99.90;;;;;;5053509;28;20478;-79
2023/05/18 06:33:13;;;;;;;5.47;3.90;;;9.40;99.90;;;;;;5053342;28;20388;-79
2023/05/18 06:35:39;;;;;;;5.97;3.90;;;9.40;99.90;;;;;;5052379;28;20468;-79
2023/05/18 06:38:04;;;;;;;6.75;3.90;;;9.40;99.90;;;;;;5035772;28;20736;-79
2023/05/18 06:40:30;;;;;;;4.80;3.80;;;9.30;99.90;;;;;;5053242;28;20382;-79
2023/05/18 06:42:55;;;;;;;5.80;3.70;;;9.30;99.90;;;;;;5035473;28;20773;-78
2023/05/18 06:45:21;;;;;;;5.90;4.43;;;9.40;99.90;;;;;;5034231;28;20717;-77
2023/05/18 06:47:47;;;;;;;4.77;3.70;;;9.50;99.90;;;;;;5052554;28;20782;-79
2023/05/18 06:50:12;;;;;;;6.93;4.20;;;9.70;99.90;;;;;;5035381;28;20405;-79
2023/05/18 06:52:39;;;;;;;6.30;4.00;;;9.70;99.90;;;;;;5053454;28;20386;-80
2023/05/18 06:55:04;;;;;;;5.00;4.00;;;9.70;99.90;;;;;;5035408;28;20751;-79
2023/05/18 06:57:30;;;;;;;7.90;4.00;;;9.80;88.20;;;;;;5052135;28;20435;-80
2023/05/18 06:59:56;;;;;;;5.18;3.72;;;9.90;99.90;;;;;;5052969;28;20888;-80
2023/05/18 07:02:22;;;;;;;6.50;4.50;;;10.00;99.70;;;;;;5052864;28;20744;-80
2023/05/18 07:04:48;;;;;;;5.85;3.72;;;10.10;74.70;;;;;;5060860;28;20391;-80
2023/05/18 07:07:15;;;;;;;5.90;4.20;;;10.10;50.80;;;;;;5071926;28;21087;-80
2023/05/18 07:09:42;;;;;;;6.10;3.78;;;10.20;50.80;;;;;;5072425;28;20407;-79
2023/05/18 07:12:08;;;;;;;4.10;3.70;;;10.20;45.20;;;;;;5073140;28;20781;-80
2023/05/18 07:14:33;;;;;;;7.65;4.05;;;10.10;44.20;;;;;;5057540;28;20395;-80
2023/05/18 07:16:59;;;;;;;5.45;3.70;;;10.30;53.90;;;;;;5072782;28;20395;-80
2023/05/18 07:19:25;;;;;;;6.13;3.78;;;10.30;43.80;;;;;;5073505;28;20463;-80
2023/05/18 07:21:50;;;;;;;5.63;4.30;;;10.40;61.40;;;;;;5074113;28;20753;-80
2023/05/18 07:24:16;;;;;;;8.77;4.37;;;10.50;54.90;;;;;;5073947;28;20438;-79
2023/05/18 07:26:42;;;;;;;5.17;4.00;;;10.60;60.20;;;;;;5076539;28;20387;-79
2023/05/18 07:29:14;;;;;;;5.37;4.20;;;10.70;95.30;;;;;;5057547;28;20442;-78
2023/05/18 07:32:00;;;;;;;6.13;4.50;;;10.80;38.50;;;;;;5056247;28;20433;-78
2023/05/18 07:34:26;;;;;;;6.13;4.28;;;10.90;38.40;;;;;;5075811;28;20376;-79
2023/05/18 07:36:58;;;;;;;7.20;4.05;;;11.00;51.20;;;;;;5094347;22;20426;-79
2023/05/18 07:39:27;;;;;;;5.17;4.40;;;11.10;41.20;;;;;;5075746;28;20503;-78
2023/05/18 07:41:54;;;;;;;5.93;4.25;;;11.80;27.70;;;;;;5093385;28;20374;-79
2023/05/18 07:44:20;;;;;;;5.03;4.00;;;11.40;24.20;;;;;;5074195;28;20401;-78
2023/05/18 07:46:46;;;;;;;6.40;3.95;;;11.50;15.70;;;;;;5094104;28;20478;-78
2023/05/18 07:49:12;;;;;;;5.45;4.00;;;11.60;14.20;;;;;;5094849;28;20444;-78
2023/05/18 07:51:38;;;;;;;5.63;4.03;;;11.60;13.60;;;;;;5093915;28;20780;-79
2023/05/18 07:54:04;;;;;;;4.78;3.88;;;11.90;3.30;;;;;;5076345;28;20469;-79
2023/05/18 07:56:30;;;;;;;5.40;4.20;;;11.90;1.50;;;;;;5092649;28;20378;-79
2023/05/18 07:58:55;;;;;;;6.10;3.58;;;12.00;1.00;;;;;;5092218;28;20382;-79
2023/05/18 08:01:26;;;;;;;4.77;3.80;;;12.10;1.00;;;;;;5092710;28;20451;-78
2023/05/18 08:03:52;;;;;;;5.07;3.60;;;12.20;1.00;;;;;;5074611;28;20404;-78
2023/05/18 08:06:17;;;;;;;4.90;3.70;;;12.20;1.00;;;;;;5073304;28;20465;-78
2023/05/18 08:08:43;;;;;;;7.10;3.83;;;12.30;1.00;;;;;;5092036;28;20422;-78
2023/05/18 08:11:09;;;;;;;6.50;3.78;;;12.50;1.00;;;;;;5092441;28;20450;-77
2023/05/18 08:13:34;;;;;;;5.18;3.60;;;12.50;1.00;;;;;;5092202;28;20374;-78
2023/05/18 08:16:00;;;;;;;5.07;3.78;;;12.50;1.00;;;;;;5073914;28;20394;-78
2023/05/18 08:18:26;;;;;;;5.25;3.85;;;12.50;1.00;;;;;;5094483;28;20400;-78
2023/05/18 08:20:52;;;;;;;4.47;3.38;;;12.60;1.00;;;;;;5096693;28;20386;-78
2023/05/18 08:23:18;;;;;;;4.80;3.20;;;12.70;1.00;;;;;;5077820;28;20956;-78
2023/05/18 08:25:44;;;;;;;4.00;3.20;;;12.80;1.00;;;;;;5110259;22;20386;-81
2023/05/18 08:28:10;;;;;;;7.40;4.07;;;12.60;1.00;;;;;;5094210;28;20370;-78
2023/05/18 08:30:36;;;;;;;4.60;3.60;;;13.40;1.00;;;;;;5077390;28;20760;-77
2023/05/18 08:33:01;;;;;;;6.90;3.72;;;13.10;1.00;;;;;;5076163;28;20884;-78
2023/05/18 08:35:27;;;;;;;6.88;3.50;;;13.40;1.00;;;;;;5074746;28;20434;-78
2023/05/18 08:37:54;;;;;;;4.43;3.20;;;13.40;1.00;;;;;;5075277;28;20756;-78
2023/05/18 08:40:19;;;;;;;4.25;3.30;;;13.50;1.00;;;;;;5092793;28;20392;-77
2023/05/18 08:43:03;;;;;;;5.78;3.55;;;13.40;1.00;;;;;;5092488;28;20405;-78
2023/05/18 08:45:42;;;;;;;4.67;3.57;;;13.60;1.00;;;;;;5073451;28;20382;-79
2023/05/18 08:48:10;;;;;;;4.50;3.55;;;13.60;1.00;;;;;;5091783;28;20519;-78
2023/05/18 08:50:40;;;;;;;3.97;3.10;;;13.80;1.00;;;;;;5092292;28;20405;-79
2023/05/18 08:53:05;;;;;;;4.20;3.80;;;13.90;1.00;;;;;;5073703;28;20748;-78
2023/05/18 08:55:35;;;;;;;3.60;3.00;;;14.10;1.00;;;;;;5073984;28;20481;-78
2023/05/18 08:58:03;;;;;;;5.40;3.50;;;14.20;1.00;;;;;;5092375;28;20828;-79
2023/05/18 09:00:29;;;;;;;4.75;3.47;;;14.50;1.00;;;;;;5073832;28;20385;-79
2023/05/18 09:02:55;;;;;;;4.68;3.20;;;14.80;1.00;;;;;;5094401;28;20378;-79
2023/05/18 09:05:22;;;;;;;3.83;3.22;;;15.00;1.00;;;;;;5095430;28;20397;-79
2023/05/18 09:07:50;;;;;;;3.95;3.10;;;15.20;1.00;;;;;;5078374;28;21017;-79
2023/05/18 09:10:16;;;;;;;5.13;3.50;;;15.20;1.00;;;;;;5078877;28;20397;-80
2023/05/18 09:12:45;;;;;;;6.53;3.28;;;15.30;1.00;;;;;;5097721;28;20540;-79
2023/05/18 09:15:12;;;;;;;4.68;2.90;;;15.30;1.00;;;;;;5096177;28;20378;-79
2023/05/18 09:17:38;;;;;;;5.20;3.30;;;15.40;1.00;;;;;;5096576;28;20382;-79
2023/05/18 09:20:05;;;;;;;3.78;2.97;;;15.50;1.00;;;;;;5096934;28;20378;-79
2023/05/18 09:22:32;;;;;;;6.18;3.63;;;15.60;1.00;;;;;;5096355;28;20390;-79
2023/05/18 09:24:58;;;;;;;3.50;2.90;;;15.80;1.00;;;;;;5095609;28;20386;-79
2023/05/18 09:27:24;;;;;;;5.00;3.00;;;15.70;1.00;;;;;;5095067;28;20898;-79
2023/05/18 09:29:52;;;;;;;3.67;3.20;;;15.70;1.00;;;;;;5095704;28;20508;-79
2023/05/18 09:32:18;;;;;;;5.60;3.20;;;15.90;1.00;;;;;;5095658;28;20374;-79
2023/05/18 09:34:44;;;;;;;3.83;3.47;;;16.00;1.00;;;;;;5077092;28;20435;-79
2023/05/18 09:37:10;;;;;;;4.57;3.03;;;16.00;1.00;;;;;;5094704;28;20374;-79
2023/05/18 09:39:36;;;;;;;5.75;3.60;;;16.00;1.00;;;;;;5096038;28;20389;-79
2023/05/18 09:42:03;;;;;;;4.90;2.70;;;16.00;1.00;;;;;;5095512;28;20378;-79
2023/05/18 09:44:33;;;;;;;4.50;2.97;;;16.30;1.00;;;;;;5095322;28;20439;-79
2023/05/18 09:46:59;;;;;;;3.92;3.08;;;16.30;1.00;;;;;;5076435;28;20389;-79
2023/05/18 09:49:27;;;;;;;4.38;2.83;;;16.40;1.00;;;;;;5094836;28;20402;-79
2023/05/18 09:51:53;;;;;;;5.22;2.95;;;16.40;1.00;;;;;;5094455;28;20397;-78
2023/05/18 09:54:18;;;;;;;4.70;2.97;;;16.30;1.00;;;;;;5094567;28;20378;-80
2023/05/18 09:56:45;;;;;;;4.82;3.05;;;16.40;1.00;;;;;;5094021;28;20460;-78
2023/05/18 09:59:13;;;;;;;3.42;2.70;;;16.50;1.00;;;;;;5093936;28;20428;-79
2023/05/18 10:02:11;;;;;;;4.60;2.90;;;16.70;1.00;;;;;;5094920;28;20521;-79
2023/05/18 10:04:39;;;;;;;5.10;2.60;;;17.00;1.00;;;;;;5054680;28;20434;-79
2023/05/18 10:07:12;;;;;;;4.30;3.00;;;17.10;1.00;;;;;;5085903;23;20445;-84
2023/05/18 10:09:43;;;;;;;4.90;3.00;;;17.00;1.00;;;;;;5095307;28;20405;-85
2023/05/18 10:12:16;;;;;;;3.10;2.80;;;17.30;1.00;;;;;;5095275;28;20377;-84
2023/05/18 10:14:43;;;;;;;5.85;3.05;;;17.50;1.00;;;;;;5075272;28;20386;-85
2023/05/18 10:17:13;;;;;;;3.70;2.80;;;17.30;1.00;;;;;;5094483;28;20381;-83
2023/05/18 10:19:43;;;;;;;5.47;2.83;;;17.20;1.00;;;;;;5076539;28;20401;-84
2023/05/18 10:22:09;;;;;;;6.50;3.00;;;17.20;1.00;;;;;;5078645;28;20397;-84
2023/05/18 10:24:40;;;;;;;4.70;3.20;;;16.80;1.00;;;;;;5098161;28;20390;-84
2023/05/18 10:27:08;;;;;;;4.40;2.80;;;16.90;1.00;;;;;;5097590;28;20450;-83
2023/05/18 10:29:36;;;;;;;3.45;2.70;;;17.10;1.00;;;;;;5079744;28;20918;-83
2023/05/18 10:32:02;;;;;;;4.10;2.90;;;17.20;1.00;;;;;;5082472;28;20436;-84
2023/05/18 10:34:30;;;;;;;3.97;2.65;;;17.70;1.00;;;;;;5103209;28;20424;-82
2023/05/18 10:36:58;;;;;;;5.43;3.28;;;17.80;1.00;;;;;;5083582;28;20394;-83
2023/05/18 10:39:25;;;;;;;4.25;2.60;;;18.00;1.00;;;;;;5086710;28;20384;-83
2023/05/18 10:41:54;;;;;;;3.30;2.60;;;18.40;1.00;;;;;;5081470;28;20380;-84
2023/05/18 10:44:22;;;;;;;3.25;2.72;;;18.40;1.00;;;;;;5098647;28;20891;-82
2023/05/18 10:46:49;;;;;;;3.58;2.47;;;18.20;1.00;;;;;;5098812;28;20439;-84
2023/05/18 10:49:16;;;;;;;4.45;2.55;;;18.30;1.00;;;;;;5085821;28;20409;-84
2023/05/18 10:51:44;;;;;;;3.70;2.90;;;18.70;1.00;;;;;;5079976;28;20880;-84
2023/05/18 10:54:13;;;;;;;3.85;2.80;;;18.80;1.00;;;;;;5097912;28;20386;-84
2023/05/18 10:56:49;;;;;;;2.80;2.33;;;18.80;1.00;;;;;;5080149;28;20386;-83
2023/05/18 10:59:17;;;;;;;4.40;2.97;;;18.90;1.00;;;;;;5078293;28;20389;-81
2023/05/18 11:01:44;;;;;;;3.90;2.70;;;19.30;1.00;;;;;;5098331;28;20503;-81
2023/05/18 11:04:10;;;;;;;4.45;2.90;;;19.50;1.00;;;;;;5088402;28;20485;-82
2023/05/18 11:06:36;;;;;;;3.25;2.70;;;19.10;1.00;;;;;;5075800;28;20841;-83
2023/05/18 11:09:02;;;;;;;4.10;2.90;;;18.80;1.00;;;;;;5079000;28;20481;-83
2023/05/18 11:11:29;;;;;;;3.90;2.47;;;18.20;1.00;;;;;;5078206;28;20387;-83
2023/05/18 11:14:02;;;;;;;3.38;2.78;;;18.50;1.00;;;;;;5095728;28;20621;-83
2023/05/18 11:16:35;;;;;;;2.80;2.60;;;18.60;1.00;;;;;;5075038;28;20908;-83
2023/05/18 11:19:06;;;;;;;3.97;3.00;;;19.10;1.00;;;;;;5058236;28;20465;-83
2023/05/18 11:21:34;;;;;;;6.07;2.83;;;19.60;1.00;;;;;;5057576;28;20407;-82
2023/05/18 11:24:22;;;;;;;4.43;2.80;;;18.80;1.00;;;;;;5056640;28;20522;-83
2023/05/18 11:26:53;;;;;;;6.65;2.90;;;18.70;1.00;;;;;;5075175;28;20434;-83
2023/05/18 11:29:46;;;;;;;3.95;2.80;;;18.40;1.00;;;;;;5077086;28;20534;-82
2023/05/18 11:32:31;;;;;;;5.95;3.42;;;18.50;1.00;;;;;;5075143;28;20548;-81
2023/05/18 11:34:57;;;;;;;5.18;2.60;;;18.80;1.00;;;;;;5057578;28;20440;-84
2023/05/18 11:37:38;;;;;;;4.20;3.30;;;18.90;1.00;;;;;;5057653;28;20392;-84
2023/05/18 11:40:12;;;;;;;4.88;3.40;;;19.10;1.00;;;;;;5057843;28;20396;-80
2023/05/18 11:42:38;;;;;;;4.55;2.50;;;18.90;1.00;;;;;;5093989;28;20425;-82
2023/05/18 11:45:08;;;;;;;4.50;3.08;;;18.70;1.00;;;;;;5091319;28;20389;-83
2023/05/18 11:47:35;;;;;;;3.03;2.65;;;18.80;1.00;;;;;;5071981;28;20384;-81
2023/05/18 11:50:01;;;;;;;4.25;3.10;;;19.60;1.00;;;;;;5054755;28;20872;-82
2023/05/18 11:52:28;;;;;;;4.95;2.97;;;20.50;1.00;;;;;;5055075;28;20387;-80
2023/05/18 11:54:59;;;;;;;3.05;2.45;;;20.40;1.00;;;;;;5074240;28;20819;-79
2023/05/18 11:57:37;;;;;;;3.78;2.70;;;19.80;1.00;;;;;;5074105;28;20915;-81
2023/05/18 12:00:10;;;;;;;4.63;2.88;;;19.70;1.00;;;;;;5087779;28;20399;-80
2023/05/18 12:02:36;;;;;;;4.53;2.80;;;19.50;1.00;;;;;;5073312;28;20375;-83
2023/05/18 12:05:07;;;;;;;3.30;2.50;;;19.30;1.00;;;;;;5083475;28;20451;-83
2023/05/18 12:07:34;;;;;;;3.42;2.85;;;19.80;1.00;;;;;;5097356;28;20419;-81
2023/05/18 12:10:02;;;;;;;5.70;3.38;;;19.60;1.00;;;;;;5108119;28;20496;-82
2023/05/18 12:12:28;;;;;;;5.38;3.13;;;19.30;1.00;;;;;;5109363;28;20382;-81
2023/05/18 12:15:05;;;;;;;5.20;2.75;;;19.10;1.00;;;;;;5091843;28;20397;-83
2023/05/18 12:17:42;;;;;;;4.15;2.97;;;18.80;1.00;;;;;;5074764;28;20441;-84
2023/05/18 12:20:10;;;;;;;5.45;3.20;;;18.70;1.00;;;;;;5060815;28;20770;-84
2023/05/18 12:22:37;;;;;;;5.10;2.90;;;18.40;1.00;;;;;;5056173;28;20388;-84
2023/05/18 12:25:02;;;;;;;3.83;2.80;;;18.20;1.00;;;;;;5073836;28;20441;-84
2023/05/18 12:27:28;;;;;;;4.90;3.20;;;18.30;1.00;;;;;;5086571;28;20397;-84
2023/05/18 12:29:53;;;;;;;4.00;3.20;;;18.20;1.00;;;;;;5094540;28;20413;-83
2023/05/18 12:32:19;;;;;;;4.22;3.25;;;18.50;1.00;;;;;;5081752;28;20419;-83
2023/05/18 12:34:45;;;;;;;4.17;2.80;;;18.50;1.00;;;;;;5074133;28;20379;-84
2023/05/18 12:37:10;;;;;;;4.18;2.60;;;18.30;1.00;;;;;;5075278;28;20398;-84
2023/05/18 12:39:36;;;;;;;4.30;2.93;;;18.10;1.00;;;;;;5061459;28;20766;-83
2023/05/18 12:42:10;;;;;;;3.63;2.80;;;18.20;1.00;;;;;;5078899;28;20544;-83
2023/05/18 12:44:36;;;;;;;4.07;3.42;;;17.90;1.00;;;;;;5058843;28;20470;-82
2023/05/18 12:47:02;;;;;;;4.10;3.40;;;17.90;1.00;;;;;;5058265;28;20420;-81
2023/05/18 12:49:28;;;;;;;4.30;2.78;;;17.70;1.00;;;;;;5077070;28;20403;-81
2023/05/18 12:51:54;;;;;;;5.00;3.20;;;17.80;1.00;;;;;;5061036;28;20829;-82
2023/05/18 12:54:27;;;;;;;3.08;2.75;;;18.10;1.00;;;;;;5078046;28;20796;-80
2023/05/18 12:57:00;;;;;;;5.93;3.17;;;18.20;1.00;;;;;;5059100;28;20800;-82
2023/05/18 12:59:26;;;;;;;3.95;2.90;;;18.50;1.00;;;;;;5061294;28;20387;-82